Terminal Aerodrome Forecast
Issued by NWS Jackson, MS

Home | Current Version | Previous Version | Text Only | Print | Product List | Glossary On
Versions: 1 2 3 4 5 6 7 8 9 10 11 12 13
429
FTUS44 KJAN 212340
TAFGWO
TAF
KGWO 212340Z 2200/2224 16006KT P6SM SCT025 BKN090
     FM220200 14008KT P6SM VCTS SCT030 BKN090CB
     FM220400 15010KT 6SM TSRA SCT025 BKN035CB
     FM220600 20009KT 6SM -TSRA BKN025CB
     FM220700 20007KT P6SM -RA OVC015
     FM221400 20009KT P6SM -RA OVC050
     FM221700 23011G18KT P6SM -RA OVC050
     FM222000 25013G21KT P6SM -RA OVC025=

USA.gov is the U.S. government's official web portal to all federal, state and local government web resources and services.